sensor_id;sensor_type;location;lat;lon;timestamp;P1;durP1;ratioP1;P2;durP2;ratioP2
9940;SDS011;5009;50.656;7.188;2024-03-17T05:01:07;7.83;;;6.30;;
9940;SDS011;5009;50.656;7.188;2024-03-17T05:03:33;9.80;;;5.90;;
9940;SDS011;5009;50.656;7.188;2024-03-17T05:06:00;6.23;;;5.63;;
9940;SDS011;5009;50.656;7.188;2024-03-17T05:08:26;9.07;;;5.80;;
9940;SDS011;5009;50.656;7.188;2024-03-17T05:10:55;7.67;;;5.70;;
9940;SDS011;5009;50.656;7.188;2024-03-17T05:13:25;10.47;;;6.80;;
9940;SDS011;5009;50.656;7.188;2024-03-17T05:15:52;7.03;;;5.80;;
9940;SDS011;5009;50.656;7.188;2024-03-17T05:18:18;6.83;;;5.83;;
9940;SDS011;5009;50.656;7.188;2024-03-17T05:20:45;7.90;;;5.90;;
9940;SDS011;5009;50.656;7.188;2024-03-17T05:23:12;6.80;;;5.80;;
9940;SDS011;5009;50.656;7.188;2024-03-17T05:25:38;7.70;;;5.77;;
9940;SDS011;5009;50.656;7.188;2024-03-17T05:28:04;7.40;;;5.57;;
9940;SDS011;5009;50.656;7.188;2024-03-17T05:30:30;7.60;;;6.10;;
9940;SDS011;5009;50.656;7.188;2024-03-17T05:32:55;8.37;;;6.10;;
9940;SDS011;5009;50.656;7.188;2024-03-17T05:35:21;7.80;;;6.63;;
9940;SDS011;5009;50.656;7.188;2024-03-17T05:37:48;8.83;;;6.80;;
9940;SDS011;5009;50.656;7.188;2024-03-17T05:40:14;11.03;;;7.23;;
9940;SDS011;5009;50.656;7.188;2024-03-17T05:42:42;7.47;;;6.73;;
9940;SDS011;5009;50.656;7.188;2024-03-17T05:45:09;7.30;;;6.40;;
9940;SDS011;5009;50.656;7.188;2024-03-17T05:47:37;7.27;;;6.30;;
9940;SDS011;5009;50.656;7.188;2024-03-17T05:50:03;8.97;;;7.00;;
9940;SDS011;5009;50.656;7.188;2024-03-17T05:52:29;7.47;;;6.70;;
9940;SDS011;5009;50.656;7.188;2024-03-17T05:54:55;7.03;;;6.33;;
9940;SDS011;5009;50.656;7.188;2024-03-17T05:57:21;7.93;;;6.77;;
9940;SDS011;5009;50.656;7.188;2024-03-17T05:59:47;8.97;;;6.67;;
9940;SDS011;5009;50.656;7.188;2024-03-17T06:02:13;10.30;;;6.63;;
9940;SDS011;5009;50.656;7.188;2024-03-17T06:04:40;9.23;;;6.47;;
9940;SDS011;5009;50.656;7.188;2024-03-17T06:07:06;7.67;;;6.70;;
9940;SDS011;5009;50.656;7.188;2024-03-17T06:09:31;10.30;;;6.30;;
9940;SDS011;5009;50.656;7.188;2024-03-17T06:11:57;7.13;;;6.40;;
9940;SDS011;5009;50.656;7.188;2024-03-17T06:16:16;7.20;;;6.03;;
9940;SDS011;5009;50.656;7.188;2024-03-17T06:18:42;9.60;;;6.77;;
9940;SDS011;5009;50.656;7.188;2024-03-17T06:21:07;8.20;;;5.53;;
9940;SDS011;5009;50.656;7.188;2024-03-17T06:23:34;8.50;;;6.00;;
9940;SDS011;5009;50.656;7.188;2024-03-17T06:25:59;6.47;;;5.87;;
9940;SDS011;5009;50.656;7.188;2024-03-17T06:28:27;9.97;;;6.30;;
9940;SDS011;5009;50.656;7.188;2024-03-17T06:30:56;8.27;;;6.00;;
9940;SDS011;5009;50.656;7.188;2024-03-17T06:33:26;9.53;;;5.70;;
9940;SDS011;5009;50.656;7.188;2024-03-17T06:35:53;6.27;;;5.57;;
9940;SDS011;5009;50.656;7.188;2024-03-17T06:38:19;7.50;;;6.30;;
9940;SDS011;5009;50.656;7.188;2024-03-17T06:40:48;6.47;;;5.50;;
9940;SDS011;5009;50.656;7.188;2024-03-17T06:43:15;5.47;;;4.97;;
9940;SDS011;5009;50.656;7.188;2024-03-17T06:45:41;8.10;;;5.50;;
9940;SDS011;5009;50.656;7.188;2024-03-17T06:48:06;7.80;;;4.93;;
9940;SDS011;5009;50.656;7.188;2024-03-17T06:50:32;7.63;;;5.13;;
9940;SDS011;5009;50.656;7.188;2024-03-17T06:52:57;5.50;;;4.87;;
9940;SDS011;5009;50.656;7.188;2024-03-17T06:55:23;6.37;;;4.97;;
9940;SDS011;5009;50.656;7.188;2024-03-17T06:57:49;5.30;;;4.70;;
9940;SDS011;5009;50.656;7.188;2024-03-17T07:00:15;6.43;;;4.93;;
9940;SDS011;5009;50.656;7.188;2024-03-17T07:02:42;6.20;;;5.33;;
9940;SDS011;5009;50.656;7.188;2024-03-17T07:05:11;8.33;;;4.80;;
9940;SDS011;5009;50.656;7.188;2024-03-17T07:07:40;7.07;;;5.00;;
9940;SDS011;5009;50.656;7.188;2024-03-17T07:10:06;5.23;;;4.73;;
9940;SDS011;5009;50.656;7.188;2024-03-17T07:12:33;6.93;;;5.07;;
9940;SDS011;5009;50.656;7.188;2024-03-17T07:14:59;5.67;;;5.17;;
9940;SDS011;5009;50.656;7.188;2024-03-17T07:17:25;5.53;;;5.03;;
9940;SDS011;5009;50.656;7.188;2024-03-17T07:19:50;7.53;;;5.43;;
9940;SDS011;5009;50.656;7.188;2024-03-17T07:22:16;8.27;;;6.10;;
9940;SDS011;5009;50.656;7.188;2024-03-17T07:24:42;7.63;;;5.20;;
9940;SDS011;5009;50.656;7.188;2024-03-17T07:27:09;5.90;;;5.40;;
9940;SDS011;5009;50.656;7.188;2024-03-17T07:29:38;5.87;;;5.17;;
9940;SDS011;5009;50.656;7.188;2024-03-17T07:32:04;7.40;;;5.57;;
9940;SDS011;5009;50.656;7.188;2024-03-17T07:34:30;5.87;;;5.23;;
9940;SDS011;5009;50.656;7.188;2024-03-17T07:36:56;7.43;;;5.63;;
9940;SDS011;5009;50.656;7.188;2024-03-17T07:39:25;6.73;;;5.40;;
9940;SDS011;5009;50.656;7.188;2024-03-17T07:42:00;6.33;;;5.73;;
9940;SDS011;5009;50.656;7.188;2024-03-17T07:44:26;6.17;;;5.07;;
9940;SDS011;5009;50.656;7.188;2024-03-17T07:46:57;5.20;;;4.30;;
9940;SDS011;5009;50.656;7.188;2024-03-17T07:49:22;5.67;;;5.07;;
9940;SDS011;5009;50.656;7.188;2024-03-17T07:51:48;4.70;;;4.30;;
9940;SDS011;5009;50.656;7.188;2024-03-17T07:54:13;5.65;;;4.13;;
9940;SDS011;5009;50.656;7.188;2024-03-17T07:56:39;4.53;;;3.90;;
9940;SDS011;5009;50.656;7.188;2024-03-17T07:59:05;4.75;;;4.13;;
9940;SDS011;5009;50.656;7.188;2024-03-17T08:01:38;4.18;;;3.88;;
9940;SDS011;5009;50.656;7.188;2024-03-17T08:04:04;4.70;;;4.28;;
9940;SDS011;5009;50.656;7.188;2024-03-17T08:06:30;4.43;;;4.00;;
9940;SDS011;5009;50.656;7.188;2024-03-17T08:08:55;4.25;;;3.88;;
9940;SDS011;5009;50.656;7.188;2024-03-17T08:11:22;4.63;;;4.22;;
9940;SDS011;5009;50.656;7.188;2024-03-17T08:13:47;5.07;;;4.05;;
9940;SDS011;5009;50.656;7.188;2024-03-17T08:16:13;4.80;;;4.00;;
9940;SDS011;5009;50.656;7.188;2024-03-17T08:18:39;5.07;;;3.78;;
9940;SDS011;5009;50.656;7.188;2024-03-17T08:21:05;3.85;;;3.53;;
9940;SDS011;5009;50.656;7.188;2024-03-17T08:23:31;4.43;;;3.90;;
9940;SDS011;5009;50.656;7.188;2024-03-17T08:26:04;4.47;;;3.90;;
9940;SDS011;5009;50.656;7.188;2024-03-17T08:28:30;5.22;;;3.72;;
9940;SDS011;5009;50.656;7.188;2024-03-17T08:30:56;4.35;;;3.95;;
9940;SDS011;5009;50.656;7.188;2024-03-17T08:33:23;6.10;;;3.95;;
9940;SDS011;5009;50.656;7.188;2024-03-17T08:36:07;4.25;;;3.83;;
9940;SDS011;5009;50.656;7.188;2024-03-17T08:38:34;6.68;;;4.10;;
9940;SDS011;5009;50.656;7.188;2024-03-17T08:41:04;4.10;;;3.80;;
9940;SDS011;5009;50.656;7.188;2024-03-17T08:43:31;4.90;;;3.97;;
9940;SDS011;5009;50.656;7.188;2024-03-17T08:45:58;5.53;;;4.00;;
9940;SDS011;5009;50.656;7.188;2024-03-17T08:48:26;4.20;;;3.80;;
9940;SDS011;5009;50.656;7.188;2024-03-17T08:50:53;4.87;;;4.00;;
9940;SDS011;5009;50.656;7.188;2024-03-17T08:53:20;5.53;;;3.93;;
9940;SDS011;5009;50.656;7.188;2024-03-17T08:55:46;4.40;;;4.00;;
9940;SDS011;5009;50.656;7.188;2024-03-17T08:58:13;3.77;;;3.47;;
9940;SDS011;5009;50.656;7.188;2024-03-17T09:00:38;5.43;;;3.63;;
9940;SDS011;5009;50.656;7.188;2024-03-17T09:03:06;3.93;;;3.17;;
9940;SDS011;5009;50.656;7.188;2024-03-17T09:05:35;4.73;;;3.27;;
9940;SDS011;5009;50.656;7.188;2024-03-17T09:08:01;4.37;;;3.60;;
9940;SDS011;5009;50.656;7.188;2024-03-17T09:10:26;4.67;;;3.60;;
9940;SDS011;5009;50.656;7.188;2024-03-17T09:12:52;3.63;;;3.33;;
9940;SDS011;5009;50.656;7.188;2024-03-17T09:15:17;3.70;;;3.33;;
9940;SDS011;5009;50.656;7.188;2024-03-17T09:17:43;3.50;;;3.13;;
9940;SDS011;5009;50.656;7.188;2024-03-17T09:20:09;4.23;;;3.40;;
9940;SDS011;5009;50.656;7.188;2024-03-17T09:22:39;4.63;;;3.10;;
9940;SDS011;5009;50.656;7.188;2024-03-17T09:25:08;3.10;;;2.80;;
9940;SDS011;5009;50.656;7.188;2024-03-17T09:27:34;3.20;;;2.90;;
9940;SDS011;5009;50.656;7.188;2024-03-17T09:30:04;6.67;;;2.90;;
9940;SDS011;5009;50.656;7.188;2024-03-17T09:32:36;4.63;;;3.13;;
9940;SDS011;5009;50.656;7.188;2024-03-17T09:35:02;6.23;;;3.20;;
9940;SDS011;5009;50.656;7.188;2024-03-17T09:37:28;3.30;;;3.00;;
9940;SDS011;5009;50.656;7.188;2024-03-17T09:39:56;4.57;;;3.40;;
9940;SDS011;5009;50.656;7.188;2024-03-17T09:42:31;4.10;;;3.00;;
9940;SDS011;5009;50.656;7.188;2024-03-17T09:44:57;3.20;;;2.90;;
9940;SDS011;5009;50.656;7.188;2024-03-17T09:47:23;4.07;;;3.17;;
9940;SDS011;5009;50.656;7.188;2024-03-17T09:49:51;4.10;;;3.30;;
9940;SDS011;5009;50.656;7.188;2024-03-17T09:52:20;3.10;;;2.80;;
9940;SDS011;5009;50.656;7.188;2024-03-17T09:55:08;3.53;;;3.23;;
9940;SDS011;5009;50.656;7.188;2024-03-17T09:57:39;2.90;;;2.70;;
9940;SDS011;5009;50.656;7.188;2024-03-17T10:00:13;2.73;;;2.53;;
9940;SDS011;5009;50.656;7.188;2024-03-17T10:02:43;3.60;;;2.90;;
9940;SDS011;5009;50.656;7.188;2024-03-17T10:05:17;4.03;;;2.73;;
9940;SDS011;5009;50.656;7.188;2024-03-17T10:07:46;3.40;;;3.10;;
9940;SDS011;5009;50.656;7.188;2024-03-17T10:10:12;4.03;;;3.00;;
9940;SDS011;5009;50.656;7.188;2024-03-17T10:12:38;4.60;;;3.10;;
9940;SDS011;5009;50.656;7.188;2024-03-17T10:15:03;3.10;;;2.90;;
9940;SDS011;5009;50.656;7.188;2024-03-17T10:17:33;4.30;;;2.83;;
9940;SDS011;5009;50.656;7.188;2024-03-17T10:25:25;3.87;;;3.57;;
9940;SDS011;5009;50.656;7.188;2024-03-17T10:27:51;4.97;;;2.97;;
9940;SDS011;5009;50.656;7.188;2024-03-17T10:30:18;3.53;;;2.80;;
9940;SDS011;5009;50.656;7.188;2024-03-17T10:32:53;3.57;;;3.10;;
9940;SDS011;5009;50.656;7.188;2024-03-17T10:35:33;3.67;;;3.37;;
9940;SDS011;5009;50.656;7.188;2024-03-17T10:38:03;3.40;;;3.10;;
9940;SDS011;5009;50.656;7.188;2024-03-17T10:40:30;3.27;;;2.97;;
9940;SDS011;5009;50.656;7.188;2024-03-17T10:42:58;3.40;;;2.80;;
9940;SDS011;5009;50.656;7.188;2024-03-17T10:45:26;3.47;;;3.17;;
9940;SDS011;5009;50.656;7.188;2024-03-17T10:47:55;3.70;;;3.40;;
9940;SDS011;5009;50.656;7.188;2024-03-17T10:50:23;3.97;;;3.17;;
9940;SDS011;5009;50.656;7.188;2024-03-17T10:52:49;4.93;;;3.40;;
9940;SDS011;5009;50.656;7.188;2024-03-17T10:55:25;4.60;;;3.17;;
9940;SDS011;5009;50.656;7.188;2024-03-17T10:57:52;6.00;;;3.40;;
9940;SDS011;5009;50.656;7.188;2024-03-17T11:00:22;4.47;;;3.50;;
9940;SDS011;5009;50.656;7.188;2024-03-17T11:02:48;3.50;;;3.30;;
9940;SDS011;5009;50.656;7.188;2024-03-17T11:05:19;3.43;;;3.13;;
9940;SDS011;5009;50.656;7.188;2024-03-17T11:07:51;3.57;;;3.27;;
9940;SDS011;5009;50.656;7.188;2024-03-17T11:12:55;3.70;;;3.40;;
9940;SDS011;5009;50.656;7.188;2024-03-17T11:17:54;5.17;;;3.37;;
9940;SDS011;5009;50.656;7.188;2024-03-17T11:20:41;3.87;;;3.47;;
9940;SDS011;5009;50.656;7.188;2024-03-17T11:23:08;5.47;;;4.10;;
9940;SDS011;5009;50.656;7.188;2024-03-17T11:28:00;4.30;;;3.90;;
9940;SDS011;5009;50.656;7.188;2024-03-17T11:38:56;5.77;;;4.10;;
9940;SDS011;5009;50.656;7.188;2024-03-17T11:41:52;4.50;;;4.10;;
9940;SDS011;5009;50.656;7.188;2024-03-17T11:51:54;6.50;;;4.13;;
9940;SDS011;5009;50.656;7.188;2024-03-17T11:54:24;4.57;;;3.77;;
9940;SDS011;5009;50.656;7.188;2024-03-17T11:56:54;6.13;;;3.70;;
9940;SDS011;5009;50.656;7.188;2024-03-17T11:59:22;4.90;;;3.63;;
9940;SDS011;5009;50.656;7.188;2024-03-17T12:01:50;4.90;;;4.17;;
9940;SDS011;5009;50.656;7.188;2024-03-17T12:04:17;5.10;;;3.73;;
9940;SDS011;5009;50.656;7.188;2024-03-17T12:06:46;4.43;;;3.70;;
9940;SDS011;5009;50.656;7.188;2024-03-17T12:14:29;4.30;;;3.47;;
9940;SDS011;5009;50.656;7.188;2024-03-17T12:16:55;8.57;;;3.83;;
9940;SDS011;5009;50.656;7.188;2024-03-17T12:19:25;3.65;;;3.35;;
9940;SDS011;5009;50.656;7.188;2024-03-17T12:21:52;5.82;;;4.38;;
9940;SDS011;5009;50.656;7.188;2024-03-17T12:24:25;5.90;;;4.70;;
9940;SDS011;5009;50.656;7.188;2024-03-17T12:26:55;4.70;;;4.30;;
9940;SDS011;5009;50.656;7.188;2024-03-17T12:29:37;4.27;;;3.93;;
9940;SDS011;5009;50.656;7.188;2024-03-17T12:34:36;4.17;;;3.80;;
9940;SDS011;5009;50.656;7.188;2024-03-17T12:37:02;4.77;;;4.23;;
9940;SDS011;5009;50.656;7.188;2024-03-17T12:39:29;4.80;;;3.90;;
9940;SDS011;5009;50.656;7.188;2024-03-17T12:42:06;4.00;;;3.70;;
9940;SDS011;5009;50.656;7.188;2024-03-17T12:47:15;4.37;;;3.97;;
9940;SDS011;5009;50.656;7.188;2024-03-17T12:52:17;4.70;;;4.30;;
9940;SDS011;5009;50.656;7.188;2024-03-17T12:57:44;5.20;;;4.68;;
9940;SDS011;5009;50.656;7.188;2024-03-17T13:00:29;4.75;;;4.35;;
9940;SDS011;5009;50.656;7.188;2024-03-17T13:03:02;4.10;;;3.72;;
9940;SDS011;5009;50.656;7.188;2024-03-17T13:05:29;4.63;;;4.15;;
9940;SDS011;5009;50.656;7.188;2024-03-17T13:07:55;5.23;;;4.40;;
9940;SDS011;5009;50.656;7.188;2024-03-17T13:10:21;4.88;;;4.28;;
9940;SDS011;5009;50.656;7.188;2024-03-17T13:12:48;4.93;;;4.37;;
9940;SDS011;5009;50.656;7.188;2024-03-17T13:17:41;5.10;;;4.60;;
9940;SDS011;5009;50.656;7.188;2024-03-17T13:20:16;7.15;;;4.07;;
9940;SDS011;5009;50.656;7.188;2024-03-17T13:22:42;5.97;;;4.23;;
9940;SDS011;5009;50.656;7.188;2024-03-17T13:25:12;6.63;;;4.60;;
9940;SDS011;5009;50.656;7.188;2024-03-17T13:27:47;4.63;;;4.20;;
9940;SDS011;5009;50.656;7.188;2024-03-17T13:30:13;4.93;;;4.53;;
9940;SDS011;5009;50.656;7.188;2024-03-17T13:32:40;4.80;;;4.20;;
9940;SDS011;5009;50.656;7.188;2024-03-17T13:35:29;4.72;;;4.25;;
9940;SDS011;5009;50.656;7.188;2024-03-17T13:37:56;4.50;;;4.20;;
9940;SDS011;5009;50.656;7.188;2024-03-17T13:40:26;4.07;;;3.78;;
9940;SDS011;5009;50.656;7.188;2024-03-17T13:42:52;6.03;;;4.85;;
9940;SDS011;5009;50.656;7.188;2024-03-17T13:45:19;5.15;;;4.18;;
9940;SDS011;5009;50.656;7.188;2024-03-17T13:47:56;6.00;;;3.65;;
9940;SDS011;5009;50.656;7.188;2024-03-17T13:50:24;4.03;;;3.60;;
9940;SDS011;5009;50.656;7.188;2024-03-17T13:52:50;6.70;;;4.07;;
9940;SDS011;5009;50.656;7.188;2024-03-17T13:55:19;4.30;;;3.90;;
9940;SDS011;5009;50.656;7.188;2024-03-17T13:57:53;6.53;;;3.97;;
9940;SDS011;5009;50.656;7.188;2024-03-17T14:00:20;4.65;;;3.75;;
9940;SDS011;5009;50.656;7.188;2024-03-17T14:02:47;4.25;;;3.85;;
9940;SDS011;5009;50.656;7.188;2024-03-17T14:05:15;5.53;;;4.20;;
9940;SDS011;5009;50.656;7.188;2024-03-17T14:07:42;4.63;;;4.22;;
9940;SDS011;5009;50.656;7.188;2024-03-17T14:10:08;5.97;;;4.25;;
9940;SDS011;5009;50.656;7.188;2024-03-17T14:12:35;4.55;;;4.15;;
9940;SDS011;5009;50.656;7.188;2024-03-17T14:15:02;6.80;;;4.70;;
9940;SDS011;5009;50.656;7.188;2024-03-17T14:17:35;6.00;;;4.22;;
9940;SDS011;5009;50.656;7.188;2024-03-17T14:20:05;4.25;;;3.95;;
9940;SDS011;5009;50.656;7.188;2024-03-17T14:22:34;6.55;;;4.40;;
9940;SDS011;5009;50.656;7.188;2024-03-17T14:25:00;5.57;;;4.00;;
9940;SDS011;5009;50.656;7.188;2024-03-17T14:27:25;4.78;;;4.15;;
9940;SDS011;5009;50.656;7.188;2024-03-17T14:29:52;4.85;;;4.45;;
9940;SDS011;5009;50.656;7.188;2024-03-17T14:32:18;6.93;;;4.50;;
9940;SDS011;5009;50.656;7.188;2024-03-17T14:34:43;4.67;;;4.20;;
9940;SDS011;5009;50.656;7.188;2024-03-17T14:37:09;4.35;;;3.95;;
9940;SDS011;5009;50.656;7.188;2024-03-17T14:39:34;5.80;;;4.57;;
9940;SDS011;5009;50.656;7.188;2024-03-17T14:42:00;5.00;;;3.90;;
9940;SDS011;5009;50.656;7.188;2024-03-17T14:44:25;5.10;;;4.53;;
9940;SDS011;5009;50.656;7.188;2024-03-17T14:46:51;4.27;;;3.93;;
9940;SDS011;5009;50.656;7.188;2024-03-17T14:49:17;4.40;;;4.00;;
9940;SDS011;5009;50.656;7.188;2024-03-17T14:51:43;5.13;;;4.43;;
9940;SDS011;5009;50.656;7.188;2024-03-17T14:54:09;5.00;;;4.07;;
9940;SDS011;5009;50.656;7.188;2024-03-17T14:56:38;6.00;;;4.87;;
9940;SDS011;5009;50.656;7.188;2024-03-17T14:59:05;4.80;;;4.37;;
9940;SDS011;5009;50.656;7.188;2024-03-17T15:01:31;4.43;;;4.03;;
9940;SDS011;5009;50.656;7.188;2024-03-17T15:03:56;4.70;;;3.90;;
9940;SDS011;5009;50.656;7.188;2024-03-17T15:06:22;4.37;;;3.97;;
9940;SDS011;5009;50.656;7.188;2024-03-17T15:08:49;5.47;;;4.03;;
9940;SDS011;5009;50.656;7.188;2024-03-17T15:11:15;4.93;;;3.53;;
9940;SDS011;5009;50.656;7.188;2024-03-17T15:13:43;6.20;;;4.40;;
9940;SDS011;5009;50.656;7.188;2024-03-17T15:16:09;5.70;;;4.97;;
9940;SDS011;5009;50.656;7.188;2024-03-17T15:18:34;4.30;;;3.90;;
9940;SDS011;5009;50.656;7.188;2024-03-17T15:21:00;4.97;;;4.13;;
9940;SDS011;5009;50.656;7.188;2024-03-17T15:23:27;4.63;;;4.23;;
9940;SDS011;5009;50.656;7.188;2024-03-17T15:26:02;5.00;;;4.50;;
9940;SDS011;5009;50.656;7.188;2024-03-17T15:28:36;4.43;;;3.93;;
9940;SDS011;5009;50.656;7.188;2024-03-17T15:31:04;5.40;;;4.33;;
9940;SDS011;5009;50.656;7.188;2024-03-17T15:33:31;6.20;;;4.23;;
9940;SDS011;5009;50.656;7.188;2024-03-17T15:36:00;5.90;;;3.87;;
9940;SDS011;5009;50.656;7.188;2024-03-17T15:38:26;3.63;;;3.33;;
9940;SDS011;5009;50.656;7.188;2024-03-17T15:40:52;6.63;;;4.07;;
9940;SDS011;5009;50.656;7.188;2024-03-17T15:43:18;4.20;;;3.80;;
9940;SDS011;5009;50.656;7.188;2024-03-17T15:45:43;4.07;;;3.60;;
9940;SDS011;5009;50.656;7.188;2024-03-17T15:48:09;4.00;;;3.57;;
9940;SDS011;5009;50.656;7.188;2024-03-17T15:50:34;5.70;;;3.97;;
9940;SDS011;5009;50.656;7.188;2024-03-17T15:53:00;3.60;;;3.30;;
9940;SDS011;5009;50.656;7.188;2024-03-17T15:55:26;4.87;;;3.97;;
9940;SDS011;5009;50.656;7.188;2024-03-17T15:57:51;4.53;;;3.43;;
9940;SDS011;5009;50.656;7.188;2024-03-17T16:00:17;3.80;;;3.50;;
9940;SDS011;5009;50.656;7.188;2024-03-17T16:02:44;4.13;;;3.30;;
9940;SDS011;5009;50.656;7.188;2024-03-17T16:05:13;5.20;;;3.80;;
9940;SDS011;5009;50.656;7.188;2024-03-17T16:07:43;8.70;;;3.80;;
9940;SDS011;5009;50.656;7.188;2024-03-17T16:10:10;3.93;;;3.50;;
9940;SDS011;5009;50.656;7.188;2024-03-17T16:12:41;5.93;;;3.37;;
9940;SDS011;5009;50.656;7.188;2024-03-17T16:15:07;4.07;;;3.20;;
9940;SDS011;5009;50.656;7.188;2024-03-17T16:17:33;4.33;;;3.60;;
9940;SDS011;5009;50.656;7.188;2024-03-17T16:20:03;3.10;;;2.90;;
9940;SDS011;5009;50.656;7.188;2024-03-17T16:22:34;5.13;;;3.47;;
9940;SDS011;5009;50.656;7.188;2024-03-17T16:25:00;3.33;;;3.03;;
9940;SDS011;5009;50.656;7.188;2024-03-17T16:27:26;4.13;;;2.97;;
9940;SDS011;5009;50.656;7.188;2024-03-17T16:29:52;3.30;;;2.80;;
9940;SDS011;5009;50.656;7.188;2024-03-17T16:32:19;3.97;;;3.20;;
9940;SDS011;5009;50.656;7.188;2024-03-17T16:34:44;5.53;;;2.70;;
9940;SDS011;5009;50.656;7.188;2024-03-17T16:37:10;4.23;;;2.80;;
9940;SDS011;5009;50.656;7.188;2024-03-17T16:39:36;4.10;;;3.80;;
9940;SDS011;5009;50.656;7.188;2024-03-17T16:42:01;3.37;;;2.70;;
9940;SDS011;5009;50.656;7.188;2024-03-17T16:44:40;5.10;;;3.20;;
9940;SDS011;5009;50.656;7.188;2024-03-17T16:47:31;3.50;;;3.00;;
9940;SDS011;5009;50.656;7.188;2024-03-17T16:50:00;2.70;;;2.50;;
9940;SDS011;5009;50.656;7.188;2024-03-17T16:52:30;3.83;;;2.63;;
9940;SDS011;5009;50.656;7.188;2024-03-17T16:54:57;3.07;;;2.70;;
9940;SDS011;5009;50.656;7.188;2024-03-17T16:57:22;3.63;;;2.60;;
9940;SDS011;5009;50.656;7.188;2024-03-17T16:59:48;4.30;;;3.10;;
9940;SDS011;5009;50.656;7.188;2024-03-17T17:02:15;2.57;;;2.10;;
9940;SDS011;5009;50.656;7.188;2024-03-17T17:04:45;3.40;;;2.50;;
9940;SDS011;5009;50.656;7.188;2024-03-17T17:07:12;4.23;;;2.57;;
9940;SDS011;5009;50.656;7.188;2024-03-17T17:09:38;3.20;;;2.87;;
9940;SDS011;5009;50.656;7.188;2024-03-17T17:12:04;5.30;;;3.00;;
9940;SDS011;5009;50.656;7.188;2024-03-17T17:14:31;5.40;;;3.70;;
9940;SDS011;5009;50.656;7.188;2024-03-17T17:16:57;7.27;;;4.20;;
9940;SDS011;5009;50.656;7.188;2024-03-17T17:19:24;3.07;;;2.80;;
9940;SDS011;5009;50.656;7.188;2024-03-17T17:21:50;3.70;;;3.00;;
9940;SDS011;5009;50.656;7.188;2024-03-17T17:24:17;3.10;;;2.63;;
9940;SDS011;5009;50.656;7.188;2024-03-17T17:26:45;4.47;;;3.73;;
9940;SDS011;5009;50.656;7.188;2024-03-17T17:29:11;4.90;;;3.63;;
9940;SDS011;5009;50.656;7.188;2024-03-17T17:31:37;5.47;;;3.57;;
9940;SDS011;5009;50.656;7.188;2024-03-17T17:34:02;5.27;;;3.53;;
9940;SDS011;5009;50.656;7.188;2024-03-17T17:36:28;3.63;;;3.23;;
9940;SDS011;5009;50.656;7.188;2024-03-17T17:38:54;6.37;;;3.10;;
9940;SDS011;5009;50.656;7.188;2024-03-17T17:41:20;4.20;;;3.17;;
9940;SDS011;5009;50.656;7.188;2024-03-17T17:43:48;3.63;;;3.17;;
9940;SDS011;5009;50.656;7.188;2024-03-17T17:46:15;4.10;;;3.13;;
9940;SDS011;5009;50.656;7.188;2024-03-17T17:48:43;4.20;;;3.57;;
9940;SDS011;5009;50.656;7.188;2024-03-17T17:51:13;5.80;;;3.20;;
9940;SDS011;5009;50.656;7.188;2024-03-17T17:53:40;4.93;;;3.57;;
9940;SDS011;5009;50.656;7.188;2024-03-17T17:56:09;3.40;;;3.10;;
9940;SDS011;5009;50.656;7.188;2024-03-17T17:58:36;4.33;;;3.13;;
9940;SDS011;5009;50.656;7.188;2024-03-17T18:01:03;5.30;;;3.50;;
9940;SDS011;5009;50.656;7.188;2024-03-17T18:03:31;6.40;;;3.20;;
9940;SDS011;5009;50.656;7.188;2024-03-17T18:05:57;3.77;;;3.27;;
9940;SDS011;5009;50.656;7.188;2024-03-17T18:08:23;5.40;;;3.50;;
9940;SDS011;5009;50.656;7.188;2024-03-17T18:10:50;4.40;;;3.60;;
9940;SDS011;5009;50.656;7.188;2024-03-17T18:13:16;4.57;;;3.37;;
9940;SDS011;5009;50.656;7.188;2024-03-17T18:15:42;3.80;;;3.50;;
9940;SDS011;5009;50.656;7.188;2024-03-17T18:18:08;5.63;;;3.77;;
9940;SDS011;5009;50.656;7.188;2024-03-17T18:20:35;4.37;;;3.90;;
9940;SDS011;5009;50.656;7.188;2024-03-17T18:23:00;5.20;;;3.63;;
9940;SDS011;5009;50.656;7.188;2024-03-17T18:25:30;4.70;;;3.80;;
9940;SDS011;5009;50.656;7.188;2024-03-17T18:27:58;5.57;;;3.53;;
9940;SDS011;5009;50.656;7.188;2024-03-17T18:30:27;4.57;;;3.80;;
9940;SDS011;5009;50.656;7.188;2024-03-17T18:32:55;4.07;;;3.67;;
9940;SDS011;5009;50.656;7.188;2024-03-17T18:35:26;4.07;;;3.60;;
9940;SDS011;5009;50.656;7.188;2024-03-17T18:37:53;5.67;;;3.70;;
9940;SDS011;5009;50.656;7.188;2024-03-17T18:40:18;5.43;;;3.40;;
9940;SDS011;5009;50.656;7.188;2024-03-17T18:42:45;6.03;;;3.87;;
9940;SDS011;5009;50.656;7.188;2024-03-17T18:45:14;5.93;;;3.73;;
9940;SDS011;5009;50.656;7.188;2024-03-17T18:47:47;5.53;;;3.70;;
9940;SDS011;5009;50.656;7.188;2024-03-17T18:50:16;4.17;;;3.77;;
9940;SDS011;5009;50.656;7.188;2024-03-17T18:52:46;5.30;;;4.27;;
9940;SDS011;5009;50.656;7.188;2024-03-17T18:55:15;5.77;;;4.20;;
9940;SDS011;5009;50.656;7.188;2024-03-17T18:57:42;5.87;;;4.00;;
9940;SDS011;5009;50.656;7.188;2024-03-17T19:00:08;6.60;;;3.87;;
9940;SDS011;5009;50.656;7.188;2024-03-17T19:02:47;6.30;;;3.83;;
9940;SDS011;5009;50.656;7.188;2024-03-17T19:05:14;5.73;;;4.50;;
9940;SDS011;5009;50.656;7.188;2024-03-17T19:07:41;6.63;;;5.27;;
9940;SDS011;5009;50.656;7.188;2024-03-17T19:10:08;10.90;;;5.93;;
9940;SDS011;5009;50.656;7.188;2024-03-17T19:12:35;15.90;;;6.80;;
9940;SDS011;5009;50.656;7.188;2024-03-17T19:15:01;8.33;;;6.27;;
9940;SDS011;5009;50.656;7.188;2024-03-17T19:17:28;8.00;;;6.70;;
9940;SDS011;5009;50.656;7.188;2024-03-17T19:19:54;11.07;;;8.10;;
9940;SDS011;5009;50.656;7.188;2024-03-17T19:22:20;11.23;;;7.17;;
9940;SDS011;5009;50.656;7.188;2024-03-17T19:24:54;7.83;;;7.00;;
9940;SDS011;5009;50.656;7.188;2024-03-17T19:27:20;11.70;;;6.10;;
9940;SDS011;5009;50.656;7.188;2024-03-17T19:29:47;9.97;;;6.33;;
9940;SDS011;5009;50.656;7.188;2024-03-17T19:32:13;6.50;;;5.73;;
9940;SDS011;5009;50.656;7.188;2024-03-17T19:34:38;10.57;;;6.60;;
9940;SDS011;5009;50.656;7.188;2024-03-17T19:37:04;7.60;;;6.53;;
9940;SDS011;5009;50.656;7.188;2024-03-17T19:39:31;8.50;;;6.43;;
9940;SDS011;5009;50.656;7.188;2024-03-17T19:41:56;9.00;;;6.87;;
9940;SDS011;5009;50.656;7.188;2024-03-17T19:44:22;6.27;;;5.67;;
9940;SDS011;5009;50.656;7.188;2024-03-17T19:46:48;8.17;;;5.30;;
9940;SDS011;5009;50.656;7.188;2024-03-17T19:49:13;5.87;;;5.33;;
9940;SDS011;5009;50.656;7.188;2024-03-17T19:51:39;7.27;;;6.30;;
9940;SDS011;5009;50.656;7.188;2024-03-17T19:54:05;7.70;;;6.43;;
9940;SDS011;5009;50.656;7.188;2024-03-17T19:56:31;6.90;;;5.63;;
9940;SDS011;5009;50.656;7.188;2024-03-17T19:58:57;8.07;;;5.43;;
9940;SDS011;5009;50.656;7.188;2024-03-17T20:01:23;6.60;;;4.80;;
9940;SDS011;5009;50.656;7.188;2024-03-17T20:03:49;6.53;;;4.80;;
9940;SDS011;5009;50.656;7.188;2024-03-17T20:06:19;5.27;;;4.77;;
9940;SDS011;5009;50.656;7.188;2024-03-17T20:08:47;5.80;;;5.00;;
9940;SDS011;5009;50.656;7.188;2024-03-17T20:11:14;6.10;;;4.37;;
9940;SDS011;5009;50.656;7.188;2024-03-17T20:13:39;6.67;;;5.10;;
9940;SDS011;5009;50.656;7.188;2024-03-17T20:16:05;6.80;;;5.30;;
9940;SDS011;5009;50.656;7.188;2024-03-17T20:18:31;8.80;;;5.70;;
9940;SDS011;5009;50.656;7.188;2024-03-17T20:20:57;5.87;;;5.23;;
9940;SDS011;5009;50.656;7.188;2024-03-17T20:23:23;6.30;;;5.70;;
9940;SDS011;5009;50.656;7.188;2024-03-17T20:25:48;5.97;;;5.30;;
9940;SDS011;5009;50.656;7.188;2024-03-17T20:28:14;6.20;;;5.63;;
9940;SDS011;5009;50.656;7.188;2024-03-17T20:30:40;6.17;;;5.57;;
9940;SDS011;5009;50.656;7.188;2024-03-17T20:33:06;6.40;;;5.73;;
9940;SDS011;5009;50.656;7.188;2024-03-17T20:35:32;8.47;;;5.50;;
9940;SDS011;5009;50.656;7.188;2024-03-17T20:37:57;6.60;;;5.87;;
9940;SDS011;5009;50.656;7.188;2024-03-17T20:40:24;7.60;;;6.87;;
9940;SDS011;5009;50.656;7.188;2024-03-17T20:42:50;10.07;;;6.50;;
9940;SDS011;5009;50.656;7.188;2024-03-17T20:45:17;6.53;;;5.90;;
9940;SDS011;5009;50.656;7.188;2024-03-17T20:47:45;8.47;;;6.80;;
9940;SDS011;5009;50.656;7.188;2024-03-17T20:50:15;8.27;;;6.73;;
9940;SDS011;5009;50.656;7.188;2024-03-17T20:52:42;10.27;;;7.30;;
9940;SDS011;5009;50.656;7.188;2024-03-17T20:55:08;8.63;;;7.73;;
9940;SDS011;5009;50.656;7.188;2024-03-17T20:57:34;8.30;;;7.27;;
9940;SDS011;5009;50.656;7.188;2024-03-17T21:00:05;9.90;;;8.00;;
9940;SDS011;5009;50.656;7.188;2024-03-17T21:02:42;8.70;;;7.60;;
9940;SDS011;5009;50.656;7.188;2024-03-17T21:05:08;10.90;;;7.50;;
9940;SDS011;5009;50.656;7.188;2024-03-17T21:07:34;7.93;;;7.10;;